Welaka, Florida
Current Conditions -  °F | °C
As of 8:15 PM on Tuesday 27 Jan 2015 (Local Time) from K28J Reporting Station
Scattered Clouds Scattered Clouds  
Wind Chill: 12°   Ceiling: Unl
Heat Index: 12°   Visibility: 10mi
Dew Point:   Wind: 6mph
Humidity: 54%   Direction: 350°N
Pressure: 30.01"   Gusts: NA
Location:  29.48°N, 81.67°W
Report Text: K28J 280115Z AUTO 35005KT 10SM SCT047 12/03 A3001 RMK AO2
Loading
Personal Weather Stations






























Interactive Weather Map New forecast layout! Learn more

10-Day Weather Forecast

Advertisements
Track Severe Weather on mobile